Flight Track Log - Related Links

Times and Time Zones

All times are in EST time to prevent confusion due to time zone crossing. See the CSN3797 flight status page for this flight to view local times or setup timezone preferences in your user account.

Time Position Orientation Groundspeed Altitude Reporting Facility
EST Latitude Longitude Course Direction KTS MPH feet Rate Location/Type
Wed 11:16:00 PM 22.7349 113.8892 37° Northeast  Level Estimated
Wed 11:17:00 PM 22.8304 113.9661 37° Northeast  Level Estimated
Wed 11:18:00 PM 22.9257 114.0431 37° Northeast  Level Estimated
Wed 11:19:00 PM 23.0211 114.1202 37° Northeast  Level Estimated
Wed 11:20:00 PM 23.1141 114.1955 37° Northeast  Level Estimated
Wed 11:21:00 PM 23.2071 114.2710 37° Northeast  Level Estimated
Wed 11:22:00 PM 23.3000 114.3466 37° Northeast  Level Estimated
Wed 11:23:00 PM 23.3929 114.4222 37° Northeast  Level Estimated
Wed 11:24:00 PM 23.4858 114.4980 37° Northeast  Level Estimated
Wed 11:25:00 PM 23.5786 114.5739 37° Northeast  Level Estimated
Wed 11:26:00 PM 23.6714 114.6499 37° Northeast  Level Estimated
Wed 11:27:00 PM 23.7642 114.7260 37° Northeast  Level Estimated
Wed 11:28:00 PM 23.8569 114.8022 37° Northeast  Level Estimated
Wed 11:29:00 PM 23.9496 114.8785 37° Northeast  Level Estimated
Wed 11:30:00 PM 24.0423 114.9549 37° Northeast  Level Estimated
Wed 11:31:00 PM 24.1349 115.0314 37° Northeast  Level Estimated
Wed 11:32:00 PM 24.2274 115.1081 37° Northeast  Level Estimated
Wed 11:33:00 PM 24.3200 115.1849 37° Northeast  Level Estimated
Wed 11:34:00 PM 24.4125 115.2617 37° Northeast  Level Estimated
Wed 11:35:00 PM 24.5049 115.3387 37° Northeast  Level Estimated
Wed 11:36:00 PM 24.5973 115.4158 37° Northeast  Level Estimated
Wed 11:37:00 PM 24.6897 115.4930 37° Northeast  Level Estimated
Wed 11:38:00 PM 24.7821 115.5703 37° Northeast  Level Estimated
Wed 11:39:00 PM 24.8744 115.6478 37° Northeast  Level Estimated
Wed 11:40:00 PM 24.9666 115.7253 37° Northeast  Level Estimated
Wed 11:41:00 PM 25.0588 115.8030 37° Northeast  Level Estimated
Wed 11:42:00 PM 25.1510 115.8808 37° Northeast  Level Estimated
Wed 11:43:00 PM 25.2432 115.9587 37° Northeast  Level Estimated
Wed 11:44:00 PM 25.3353 116.0367 37° Northeast  Level Estimated
Wed 11:45:00 PM 25.4273 116.1149 37° Northeast  Level Estimated
Wed 11:46:00 PM 25.5193 116.1931 38° Northeast  Level Estimated
Wed 11:47:00 PM 25.6113 116.2715 38° Northeast  Level Estimated
Wed 11:48:00 PM 25.7032 116.3500 38° Northeast  Level Estimated
Wed 11:49:00 PM 25.7951 116.4286 38° Northeast  Level Estimated
Wed 11:50:00 PM 25.8869 116.5074 38° Northeast  Level Estimated
Wed 11:51:00 PM 25.9787 116.5862 38° Northeast  Level Estimated
Wed 11:52:00 PM 26.0705 116.6652 38° Northeast  Level Estimated
Wed 11:53:00 PM 26.1622 116.7443 38° Northeast  Level Estimated
Wed 11:54:00 PM 26.2539 116.8236 38° Northeast  Level Estimated
Wed 11:55:00 PM 26.3455 116.9029 38° Northeast  Level Estimated
Wed 11:56:00 PM 26.4371 116.9824 38° Northeast  Level Estimated
Wed 11:57:00 PM 26.5287 117.0621 38° Northeast  Level Estimated
Wed 11:58:00 PM 26.6201 117.1418 38° Northeast  Level Estimated
Wed 11:59:00 PM 26.7116 117.2217 38° Northeast  Level Estimated
Thu 12:00:00 AM 26.8030 117.3017 38° Northeast  Level Estimated
Thu 12:01:00 AM 26.8944 117.3818 38° Northeast  Level Estimated
Thu 12:02:00 AM 26.9857 117.4621 38° Northeast  Level Estimated
Thu 12:03:00 AM 27.0770 117.5424 38° Northeast  Level Estimated
Thu 12:04:00 AM 27.1682 117.6230 38° Northeast  Level Estimated
Thu 12:05:00 AM 27.2594 117.7036 38° Northeast  Level Estimated
Thu 12:06:00 AM 27.3505 117.7844 38° Northeast  Level Estimated
Thu 12:07:00 AM 27.4416 117.8653 38° Northeast  Level Estimated
Thu 12:08:00 AM 27.5326 117.9464 38° Northeast  Level Estimated
Thu 12:09:00 AM 27.6236 118.0276 38° Northeast  Level Estimated
Thu 12:10:00 AM 27.7146 118.1089 38° Northeast  Level Estimated
Thu 12:11:00 AM 27.8055 118.1904 38° Northeast  Level Estimated
Thu 12:12:00 AM 27.8963 118.2719 38° Northeast  Level Estimated
Thu 12:13:00 AM 27.9871 118.3537 38° Northeast  Level Estimated
Thu 12:14:00 AM 28.0779 118.4355 39° Northeast  Level Estimated
Thu 12:15:00 AM 28.1686 118.5175 39° Northeast  Level Estimated
Thu 12:16:00 AM 28.2592 118.5997 39° Northeast  Level Estimated
Thu 12:17:00 AM 28.3498 118.6820 39° Northeast  Level Estimated
Thu 12:18:00 AM 28.4404 118.7644 39° Northeast  Level Estimated
Thu 12:19:00 AM 28.5309 118.8470 39° Northeast  Level Estimated
Thu 12:20:00 AM 28.6214 118.9297 39° Northeast  Level Estimated
Thu 12:21:00 AM 28.7118 119.0126 39° Northeast  Level Estimated
Thu 12:22:00 AM 28.8022 119.0955 39° Northeast  Level Estimated
Thu 12:23:00 AM 28.8925 119.1787 39° Northeast  Level Estimated
Thu 12:24:00 AM 28.9827 119.2620 39° Northeast  Level Estimated
Thu 12:25:00 AM 29.0729 119.3454 39° Northeast  Level Estimated
Thu 12:26:00 AM 29.1631 119.4290 39° Northeast  Level Estimated
Thu 12:27:00 AM 29.2532 119.5127 39° Northeast  Level Estimated
Thu 12:28:00 AM 29.3432 119.5966 39° Northeast  Level Estimated
Thu 12:29:00 AM 29.4332 119.6806 39° Northeast  Level Estimated
Thu 12:30:00 AM 29.5232 119.7647 39° Northeast  Level Estimated
Thu 12:31:00 AM 29.6131 119.8491 39° Northeast  Level Estimated
Thu 12:32:00 AM 29.7029 119.9335 39° Northeast  Level Estimated
Thu 12:33:00 AM 29.7927 120.0182 39° Northeast  Level Estimated
Thu 12:34:00 AM 29.8824 120.1029 39° Northeast  Level Estimated
Thu 12:35:00 AM 29.9721 120.1879 39° Northeast  Level Estimated
Thu 12:36:00 AM 30.0617 120.2729 39° Northeast  Level Estimated
Thu 12:37:00 AM 30.1513 120.3582 39° Northeast  Level Estimated
Thu 12:38:00 AM 30.2283 120.4317 39° Northeast  Level Estimated
Thu 12:39:00 AM 30.2283 120.4317 319° Northwest  Level Estimated
Thu 12:40:00 AM 30.2283 120.4317 319° Northwest  Level Estimated
Thu 12:41:00 AM 30.2283 120.4317 319° Northwest  Level Estimated
Thu 12:42:00 AM 30.2283 120.4317 319° Northwest  Level Estimated
Thu 12:43:00 AM 30.2283 120.4317 319° Northwest  Level Estimated
Thu 12:44:00 AM 30.2283 120.4317 319° Northwest  Level Estimated
Thu 12:45:00 AM 30.2283 120.4317 319° Northwest  Level Estimated

Login

Don't have an account? Register now (free) for customized features, flight alerts, and more!